Hamilton Dome, Wyoming
Current Conditions -  °F | °C
As of 6:35 PM on Monday 22 Dec 2014 (Local Time) from KTBX Reporting Station
Overcast Overcast  
Wind Chill:   Ceiling: 500
Heat Index: 21°   Visibility: NA
Dew Point: 19°   Wind: 46mph
Humidity: 93%   Direction: 310°NW
Pressure: 29.91"   Gusts: 51mph
Location:  43.77°N, 108.57°W
Report Text: KTBX 230135Z AUTO 31040G44KT BKN005 BKN010 OVC014 M06/M07 A2991 RMK AO2 PWINO
Loading
Personal Weather Stations






























Interactive Weather Map New forecast layout! Learn more

10-Day Weather Forecast

Advertisements
Track Severe Weather on mobile